Timeline UpdatesTrip UpdatesNews PostsPvt PostsTravel TipsAdmin PostsConv PostsFollowed PostsChat RequestsBlog PostsPNR Posts

Disclaimer
Search
 
 
Tue Sep 23, 2014 07:49:43 ISTHomeTrainsΣChainsAtlasPNRForumGalleryNewsFAQTripsMembersLoginFeedback
No Recent News for this Train
Other Trains in the News **new
Latest...
..
Tue Sep 03, 2013 (03:50PM)
⇐ Return Journey: Train# 11040

11039/Maharashtra Express

Time-Table HAS CHANGED.
Sep 04 (10:14PM)
Change Departure Station:
Change Arrival Station:
Post a Train Travel TipPost a Train Travel Tip **new
Post a Comment/Question/Picture/VideoPost a Comment/Question/Picture/Video
Pantry/Catering
✕ NO Pantry Car
✓ Catering Avbl
Loco/Rake Reversals
DD/Daund Junction (7); PUNE/Pune Junction (6);
RSA - Rake Sharing
11023/11024 Sahyadri Express
Rake/Coach Composition
[LOCO] [S10 (From Daund Jn To Gondia)] [SLR] [UR] [A1] [B1] [S1] [S2] [S3] [S4] [S5] [S6] [S7] [S8] [UR] [SLR] [S9 (Kolhapur To Bhusaval)]
Loco
KOP-BSL: PUNE/GY/GTL WDM-3D BSL-G: BSL WAP-4
News    PNR    Forum    Time-Table    Availability    Fare Chart    Map    Arr/Dep History    Trips    Gallery    ΣChains    X/O    Timeline    
Travel Time: 7h 35m    23 halts    Distance: 327 km    Avg Speed: 43 km/hr
Type: Mail/Express
Zone: CR/Central
Departs @ 15:30 (Avg on time)
Platform# 2
SMTWTFS
Kolhapur CSMT/KOP 
Arrives @ 23:05 (Avg on time)
Platform# 2
SMTWTFS
Pune Junction/PUNE 

23 halts. 42 intermediate Stations between Kolhapur CSMT and Pune Junction

Show ALL intermediate Stations  Show Old Time-Table

#CodeStation NameX/OArrivesAvgDepartsAvgHaltPFDay#KmSpeedElevZoneAddress
1KOPKolhapur CSMT (3)»  -15:30+0210.056563mCRKolhapur 416001, Maharashtra
2VVValivade  15:38 15:37-15:39-1 2m116.650554mCRValivade, Maharashtra
3RKDRukadi (1)X  15:48 15:47+215:49+31 2m2113.250544mCRKolhapur, Maharashtra
4HTKHatkanagale (2)  15:59 15:58+316:00+41 2m1120.767591mCRDist. Kolhapur 416115, Maharashtra
5JSPJayasingpur  16:14 16:13+616:15+61 2m1135.236550mCRJaysingpur, Maharashtra
6MRJMiraj Junction (6)X  16:35+216:40+65m1147.137554mCRMiraj 416410, Maharashtra
7SLISangli (3)  16:52+916:55+93m1154.457559mCRSangli, Maharashtra
8BVQBhilavdi  17:16 17:15+617:17+81 2m1173.555570mCRSangli, Maharashtra
9KOVKirloskarvadi  17:33 17:32+617:34+81 2m1187.351570mCRSangli, Maharashtra
10TKRTakariX  17:44 17:43+817:45+101 2m1194.992558mCRSangli, Maharashtra
11BVNRBhavani Nagar  17:50 17:49+1217:51+151 2m11101.175578mCRTasgaon Rd, Maharashtra
12KRDKarad (3)  18:07 18:08+2018:10+203 2m11122.355597mCRDist- Satara., Maharashtra
13MSRMasur  18:26 18:25+2018:27+211 2m11136.170610mCRSatara, Maharashtra
14TAZTargaonX  18:39 18:38+2118:40+221 2m11148.966617mCRSatara, Maharashtra
15RMPRahimatpur  18:51 18:50+2318:52+231 2m11160.056626mCRSatara, Maharashtra
16KRGKoregaonX  19:04 19:03+2519:05+251 2m11170.332658mCRKoregaon, Maharashtra
17STRSatara (3)  19:25+1719:28+193m21181.046637mCRSatara, Maharashtra
18JSVJarandeshwar  19:39 19:38+2019:40+211 2m11188.661678mCRSH 61, Maharashtra
19WTRWatharX  19:59 19:58+2220:00+231 2m11207.051799mCRSatara, Maharashtra
20LNNLonand  20:33 20:32+2320:34+241 2m11234.351594mCRJn Point Daund /Miraj /Pune, Maharashtra
21NIRANira (1)  20:43+2420:45+252m11242.057553mCRDist. Pune 412102, Maharashtra
22JJRJejuri (1)  21:14 21:13+2821:15+291 2m11268.578697mCRDist. Pune 412303, Maharashtra
23ABLEAmbale  21:29 21:28+3321:30+331 2m11285.444729mCRMalshiras Rd, Maharashtra
24GPRGhorpuri (2)  22:24 22:23+1722:25+181 2m11324.43558mCRPune, Maharashtra
25PUNEPune Junction (6)•X23:05+023:20+615m21326.762556mCRPune 411001, Maharashtra
26URIUruli (2)  23:49 23:48+1323:50+131 2m21355.566553mCRDist. Pune 412202, Maharashtra
27KDGKedgaon (2)X  00:14 00:13+1100:15+121 2m22380.732544mCRDist. Pune 412203, Maharashtra
28DDDaund Junction (7)XO00:55+201:10+1415m32402.358521mCRNew Daund Dist. Pune 413801, Maharashtra
29ANGAhmadnagar (2)  02:37+902:40+113m12486.559650mCRAhmednagar 414001, Maharashtra
30BAPBelapur (2)  03:48+1703:50+182m12553.568541mCRShrirampur, Maharashtra
31PBPuntamba Junction (2)X  04:08+2204:10+262m12573.869501mCRPuntamba, Maharashtra
32KPGKopargaon (2)X  04:31+3204:33+342m12598.127508mCRKopargaon 423601, Maharashtra
33YLYeola (2)X  05:03+2205:05+262m12611.826553mCRYeola, Maharashtra
34MMRManmad Junction (6)X  06:10+906:15+135m52640.485580mCRManmad 423104, Maharashtra
35NGNNandgaon (3)X  06:33+2106:35+212m22665.790476mCRNandgaon, Maharashtra
36CSNChalisgaon Junction (3)X  07:03+2107:05+212m22707.996352mCRChalisgaon 424101, Maharashtra
37PCPachora Junction (4)  07:33+2707:35+272m22752.775264mCRPachora 424201, Maharashtra
38JLJalgaon Junction (4)  08:13+2508:15+262m12800.458213mCRJalgaon 425001, Maharashtra
39BSLBhusaval Junction (8)O08:40+2609:00+2620m42824.657208mCRBhusaval 425201, Maharashtra
40BDWDBodwad (2)  09:32+3509:34+352m22854.884294mCRBodwad, Maharashtra
41MKUMalkapur (2)  09:48+3609:50+362m12874.584252mCRMalkapur, Maharashtra
42NNNandura (2)  10:10+3910:12+392m12902.467267mCRNandura, Maharashtra
43JMJalamb Junction (3)  10:23+3810:25+382m--2914.657259mCRJalamb, Maharashtra
44SEGShegaon (2)  10:38+3610:40+372m22927.064281mCRShegaon 444203, Maharashtra
45AKAkola Junction (7)X  11:15+2711:20+275m22964.180284mCRAkola-444001, Maharashtra
46MZRMurtizapur (3)X  11:48+3311:50+332m221001.336303mCRMurtajapur, Maharashtra
47BDBadnera Junction (4)X  13:00+213:05+45m121043.149335mCRBadnera (Amravati) 444701, Maharashtra
48CNDChandur (2)  13:40+413:42+62m--21071.977331mCRAmravati Distt, Maharashtra
49DMNDhamangaon (2)  13:55+713:57+72m--21088.680300mCRDhamangaon, Maharashtra
50PLOPulgaon Junction (3)  14:12+814:14+92m121108.547273mCRPulgaon, Maharashtra
51WRWardha Junction (4)X  14:52+014:55+23m--21138.132289mCRWardha 442001, Maharashtra
52SEGMSewagram Junction (5)  15:00+415:02+72m--21140.871279mCRWardha, Maharashtra
53TGPTuljapur (2)XO  15:21 15:20+1615:22+231 2m--21162.195259mCRTuljapur, Maharashtra
54SNISindi (2)XO  15:27+2515:29+282m--21170.177258mCRWardha, Maharashtra
55AJNIAjni (3)XO  16:03+3116:05+312m121213.92310mCRNagpur 440003, Maharashtra
56NGPNagpur Junction (8)X  17:20-117:40+020m421217.025314mCRNagpur 440001, Maharashtra
57ITRItwari (3)  17:49+1017:51+102m--21220.730306mSECRNagpur, Maharashtra
58KPKamptee (3)X  18:12+1018:14+112m--21231.296290mSECRKamptee, Maharashtra
59BRDBhandara Road (3)X  18:44+618:46+62m121279.277266mSECRState Highway 252 Bhandara District, Maharashtra
60TMRTumsar Road (3)X  19:00+1619:02+162m121297.181267mSECRBhandara, Maharashtra
61TROTirora (3)  19:17+1419:19+142m121317.531282mSECRDist Gondia, Maharashtra
62GGondia Junction (7)  20:15+2-521346.8-316mSECRGondia 441601, Maharashtra
Scroll to Top
Scroll to Bottom